sensor_id;sensor_type;location;lat;lon;timestamp;P1;durP1;ratioP1;P2;durP2;ratioP2
50757;SDS011;36732;47.980;11.652;2023-01-19T00:00:13;6.10;;;5.50;;
50757;SDS011;36732;47.980;11.652;2023-01-19T00:02:41;6.30;;;5.70;;
50757;SDS011;36732;47.980;11.652;2023-01-19T00:05:09;6.95;;;5.65;;
50757;SDS011;36732;47.980;11.652;2023-01-19T00:07:35;8.00;;;5.43;;
50757;SDS011;36732;47.980;11.652;2023-01-19T00:10:01;7.53;;;5.00;;
50757;SDS011;36732;47.980;11.652;2023-01-19T00:12:26;7.45;;;5.90;;
50757;SDS011;36732;47.980;11.652;2023-01-19T00:14:52;6.50;;;5.00;;
50757;SDS011;36732;47.980;11.652;2023-01-19T00:17:18;6.20;;;4.75;;
50757;SDS011;36732;47.980;11.652;2023-01-19T00:19:43;6.60;;;4.95;;
50757;SDS011;36732;47.980;11.652;2023-01-19T00:22:09;5.72;;;5.13;;
50757;SDS011;36732;47.980;11.652;2023-01-19T00:24:35;6.05;;;5.07;;
50757;SDS011;36732;47.980;11.652;2023-01-19T00:27:01;6.40;;;4.80;;
50757;SDS011;36732;47.980;11.652;2023-01-19T00:29:28;6.72;;;5.07;;
50757;SDS011;36732;47.980;11.652;2023-01-19T00:31:57;6.35;;;5.10;;
50757;SDS011;36732;47.980;11.652;2023-01-19T00:34:24;5.30;;;4.80;;
50757;SDS011;36732;47.980;11.652;2023-01-19T00:36:50;5.95;;;5.18;;
50757;SDS011;36732;47.980;11.652;2023-01-19T00:39:16;6.43;;;4.60;;
50757;SDS011;36732;47.980;11.652;2023-01-19T00:41:41;5.22;;;4.72;;
50757;SDS011;36732;47.980;11.652;2023-01-19T00:44:26;6.70;;;5.57;;
50757;SDS011;36732;47.980;11.652;2023-01-19T00:46:51;10.20;;;5.57;;
50757;SDS011;36732;47.980;11.652;2023-01-19T00:49:17;8.43;;;5.20;;
50757;SDS011;36732;47.980;11.652;2023-01-19T00:51:43;6.05;;;4.45;;
50757;SDS011;36732;47.980;11.652;2023-01-19T00:54:08;7.25;;;4.90;;
50757;SDS011;36732;47.980;11.652;2023-01-19T00:56:35;7.15;;;5.18;;
50757;SDS011;36732;47.980;11.652;2023-01-19T00:59:01;6.53;;;4.78;;
50757;SDS011;36732;47.980;11.652;2023-01-19T01:01:28;6.60;;;4.68;;
50757;SDS011;36732;47.980;11.652;2023-01-19T01:03:54;5.25;;;4.75;;
50757;SDS011;36732;47.980;11.652;2023-01-19T01:06:20;4.53;;;4.13;;
50757;SDS011;36732;47.980;11.652;2023-01-19T01:08:46;6.55;;;4.82;;
50757;SDS011;36732;47.980;11.652;2023-01-19T01:11:12;5.97;;;4.55;;
50757;SDS011;36732;47.980;11.652;2023-01-19T01:13:37;6.28;;;4.70;;
50757;SDS011;36732;47.980;11.652;2023-01-19T01:16:03;6.28;;;4.90;;
50757;SDS011;36732;47.980;11.652;2023-01-19T01:18:30;5.53;;;4.53;;
50757;SDS011;36732;47.980;11.652;2023-01-19T01:21:00;5.57;;;4.70;;
50757;SDS011;36732;47.980;11.652;2023-01-19T01:23:31;6.38;;;4.50;;
50757;SDS011;36732;47.980;11.652;2023-01-19T01:25:58;7.00;;;5.05;;
50757;SDS011;36732;47.980;11.652;2023-01-19T01:28:24;4.70;;;4.07;;
50757;SDS011;36732;47.980;11.652;2023-01-19T01:30:54;6.05;;;4.32;;
50757;SDS011;36732;47.980;11.652;2023-01-19T01:33:21;5.38;;;4.60;;
50757;SDS011;36732;47.980;11.652;2023-01-19T01:35:47;7.13;;;4.63;;
50757;SDS011;36732;47.980;11.652;2023-01-19T01:38:13;6.47;;;4.55;;
50757;SDS011;36732;47.980;11.652;2023-01-19T01:40:40;6.60;;;4.25;;
50757;SDS011;36732;47.980;11.652;2023-01-19T01:43:12;4.88;;;4.38;;
50757;SDS011;36732;47.980;11.652;2023-01-19T01:45:41;6.82;;;4.85;;
50757;SDS011;36732;47.980;11.652;2023-01-19T01:50:51;5.65;;;4.43;;
50757;SDS011;36732;47.980;11.652;2023-01-19T01:53:41;6.75;;;4.22;;
50757;SDS011;36732;47.980;11.652;2023-01-19T01:56:11;4.68;;;3.65;;
50757;SDS011;36732;47.980;11.652;2023-01-19T01:58:41;6.63;;;4.03;;
50757;SDS011;36732;47.980;11.652;2023-01-19T02:01:08;4.82;;;3.90;;
50757;SDS011;36732;47.980;11.652;2023-01-19T02:03:52;4.50;;;4.03;;
50757;SDS011;36732;47.980;11.652;2023-01-19T02:06:19;6.00;;;4.25;;
50757;SDS011;36732;47.980;11.652;2023-01-19T02:08:53;4.97;;;3.70;;
50757;SDS011;36732;47.980;11.652;2023-01-19T02:11:43;5.05;;;3.83;;
50757;SDS011;36732;47.980;11.652;2023-01-19T02:14:28;5.10;;;4.13;;
50757;SDS011;36732;47.980;11.652;2023-01-19T02:16:53;4.95;;;4.03;;
50757;SDS011;36732;47.980;11.652;2023-01-19T02:19:21;6.25;;;4.25;;
50757;SDS011;36732;47.980;11.652;2023-01-19T02:21:59;6.15;;;4.57;;
50757;SDS011;36732;47.980;11.652;2023-01-19T02:24:42;4.30;;;3.72;;
50757;SDS011;36732;47.980;11.652;2023-01-19T02:27:08;5.68;;;4.00;;
50757;SDS011;36732;47.980;11.652;2023-01-19T02:29:35;4.60;;;3.63;;
50757;SDS011;36732;47.980;11.652;2023-01-19T02:32:01;5.75;;;4.45;;
50757;SDS011;36732;47.980;11.652;2023-01-19T02:34:28;4.78;;;3.85;;
50757;SDS011;36732;47.980;11.652;2023-01-19T02:36:58;5.07;;;3.45;;
50757;SDS011;36732;47.980;11.652;2023-01-19T02:40:13;3.83;;;3.28;;
50757;SDS011;36732;47.980;11.652;2023-01-19T02:42:32;4.55;;;3.08;;
50757;SDS011;36732;47.980;11.652;2023-01-19T02:45:03;3.35;;;2.83;;
50757;SDS011;36732;47.980;11.652;2023-01-19T02:47:37;5.10;;;3.13;;
50757;SDS011;36732;47.980;11.652;2023-01-19T02:55:59;3.25;;;2.70;;
50757;SDS011;36732;47.980;11.652;2023-01-19T03:03:58;4.45;;;2.90;;
50757;SDS011;36732;47.980;11.652;2023-01-19T03:12:18;3.30;;;2.88;;
50757;SDS011;36732;47.980;11.652;2023-01-19T03:14:52;3.75;;;3.10;;
50757;SDS011;36732;47.980;11.652;2023-01-19T03:17:24;5.10;;;3.25;;
50757;SDS011;36732;47.980;11.652;2023-01-19T03:19:53;4.25;;;2.83;;
50757;SDS011;36732;47.980;11.652;2023-01-19T03:22:22;3.85;;;2.78;;
50757;SDS011;36732;47.980;11.652;2023-01-19T03:24:51;4.07;;;2.95;;
50757;SDS011;36732;47.980;11.652;2023-01-19T03:27:27;3.50;;;2.83;;
50757;SDS011;36732;47.980;11.652;2023-01-19T03:30:00;3.42;;;3.03;;
50757;SDS011;36732;47.980;11.652;2023-01-19T03:32:32;5.07;;;3.20;;
50757;SDS011;36732;47.980;11.652;2023-01-19T03:35:07;3.75;;;2.80;;
50757;SDS011;36732;47.980;11.652;2023-01-19T03:37:38;5.88;;;3.63;;
50757;SDS011;36732;47.980;11.652;2023-01-19T03:40:07;4.10;;;3.17;;
50757;SDS011;36732;47.980;11.652;2023-01-19T03:42:35;5.47;;;2.92;;
50757;SDS011;36732;47.980;11.652;2023-01-19T03:45:01;6.28;;;3.35;;
50757;SDS011;36732;47.980;11.652;2023-01-19T03:47:28;4.93;;;3.50;;
50757;SDS011;36732;47.980;11.652;2023-01-19T03:49:54;3.72;;;3.38;;
50757;SDS011;36732;47.980;11.652;2023-01-19T03:52:25;4.68;;;3.47;;
50757;SDS011;36732;47.980;11.652;2023-01-19T03:55:02;3.00;;;2.70;;
50757;SDS011;36732;47.980;11.652;2023-01-19T03:57:30;3.72;;;2.78;;
50757;SDS011;36732;47.980;11.652;2023-01-19T03:59:56;5.85;;;3.38;;
50757;SDS011;36732;47.980;11.652;2023-01-19T04:02:22;3.85;;;3.15;;
50757;SDS011;36732;47.980;11.652;2023-01-19T04:04:48;5.00;;;3.08;;
50757;SDS011;36732;47.980;11.652;2023-01-19T04:07:14;5.05;;;3.40;;
50757;SDS011;36732;47.980;11.652;2023-01-19T04:09:40;4.50;;;3.25;;
50757;SDS011;36732;47.980;11.652;2023-01-19T04:12:06;7.78;;;3.55;;
50757;SDS011;36732;47.980;11.652;2023-01-19T04:14:32;5.63;;;3.40;;
50757;SDS011;36732;47.980;11.652;2023-01-19T04:16:57;4.28;;;3.28;;
50757;SDS011;36732;47.980;11.652;2023-01-19T04:19:23;3.60;;;2.95;;
50757;SDS011;36732;47.980;11.652;2023-01-19T04:21:49;4.18;;;3.15;;
50757;SDS011;36732;47.980;11.652;2023-01-19T04:24:16;4.40;;;3.20;;
50757;SDS011;36732;47.980;11.652;2023-01-19T04:26:42;5.03;;;3.20;;
50757;SDS011;36732;47.980;11.652;2023-01-19T04:29:08;4.10;;;3.70;;
50757;SDS011;36732;47.980;11.652;2023-01-19T04:31:34;4.05;;;3.55;;
50757;SDS011;36732;47.980;11.652;2023-01-19T04:34:01;5.68;;;3.40;;
50757;SDS011;36732;47.980;11.652;2023-01-19T04:36:27;4.57;;;3.72;;
50757;SDS011;36732;47.980;11.652;2023-01-19T04:38:53;4.45;;;3.72;;
50757;SDS011;36732;47.980;11.652;2023-01-19T04:41:19;3.65;;;3.28;;
50757;SDS011;36732;47.980;11.652;2023-01-19T04:43:45;4.43;;;3.22;;
50757;SDS011;36732;47.980;11.652;2023-01-19T04:46:11;4.32;;;3.75;;
50757;SDS011;36732;47.980;11.652;2023-01-19T04:48:40;4.50;;;3.60;;
50757;SDS011;36732;47.980;11.652;2023-01-19T04:51:06;4.93;;;3.60;;
50757;SDS011;36732;47.980;11.652;2023-01-19T04:53:32;5.53;;;3.85;;
50757;SDS011;36732;47.980;11.652;2023-01-19T04:55:58;5.63;;;3.88;;
50757;SDS011;36732;47.980;11.652;2023-01-19T04:58:25;5.63;;;3.67;;
50757;SDS011;36732;47.980;11.652;2023-01-19T05:00:50;5.25;;;3.53;;
50757;SDS011;36732;47.980;11.652;2023-01-19T05:03:17;4.13;;;3.58;;
50757;SDS011;36732;47.980;11.652;2023-01-19T05:05:43;6.47;;;4.05;;
50757;SDS011;36732;47.980;11.652;2023-01-19T05:08:10;5.72;;;3.80;;
50757;SDS011;36732;47.980;11.652;2023-01-19T05:10:36;6.10;;;4.32;;
50757;SDS011;36732;47.980;11.652;2023-01-19T05:13:02;4.55;;;3.60;;
50757;SDS011;36732;47.980;11.652;2023-01-19T05:15:28;5.88;;;4.05;;
50757;SDS011;36732;47.980;11.652;2023-01-19T05:17:54;6.30;;;4.30;;
50757;SDS011;36732;47.980;11.652;2023-01-19T05:20:21;4.50;;;3.88;;
50757;SDS011;36732;47.980;11.652;2023-01-19T05:22:49;7.47;;;4.22;;
50757;SDS011;36732;47.980;11.652;2023-01-19T05:25:16;5.40;;;4.10;;
50757;SDS011;36732;47.980;11.652;2023-01-19T05:27:42;7.30;;;4.60;;
50757;SDS011;36732;47.980;11.652;2023-01-19T05:30:08;4.50;;;3.90;;
50757;SDS011;36732;47.980;11.652;2023-01-19T05:32:36;5.53;;;4.50;;
50757;SDS011;36732;47.980;11.652;2023-01-19T05:35:01;6.70;;;4.85;;
50757;SDS011;36732;47.980;11.652;2023-01-19T05:37:27;8.48;;;5.00;;
50757;SDS011;36732;47.980;11.652;2023-01-19T05:39:53;7.70;;;4.80;;
50757;SDS011;36732;47.980;11.652;2023-01-19T05:42:19;6.80;;;5.05;;
50757;SDS011;36732;47.980;11.652;2023-01-19T05:44:45;6.50;;;4.80;;
50757;SDS011;36732;47.980;11.652;2023-01-19T05:47:10;7.47;;;5.43;;
50757;SDS011;36732;47.980;11.652;2023-01-19T05:49:36;6.38;;;5.78;;
50757;SDS011;36732;47.980;11.652;2023-01-19T05:52:02;7.97;;;5.47;;
50757;SDS011;36732;47.980;11.652;2023-01-19T05:54:28;6.20;;;5.30;;
50757;SDS011;36732;47.980;11.652;2023-01-19T05:56:53;6.18;;;5.32;;
50757;SDS011;36732;47.980;11.652;2023-01-19T05:59:19;6.85;;;5.68;;
50757;SDS011;36732;47.980;11.652;2023-01-19T06:01:48;10.82;;;5.78;;
50757;SDS011;36732;47.980;11.652;2023-01-19T06:04:18;9.02;;;5.22;;
50757;SDS011;36732;47.980;11.652;2023-01-19T06:06:47;6.88;;;4.75;;
50757;SDS011;36732;47.980;11.652;2023-01-19T06:09:14;7.60;;;5.05;;
50757;SDS011;36732;47.980;11.652;2023-01-19T06:11:41;6.63;;;4.95;;
50757;SDS011;36732;47.980;11.652;2023-01-19T06:14:08;5.47;;;4.90;;
50757;SDS011;36732;47.980;11.652;2023-01-19T06:16:35;5.35;;;4.72;;
50757;SDS011;36732;47.980;11.652;2023-01-19T06:19:01;6.78;;;5.28;;
50757;SDS011;36732;47.980;11.652;2023-01-19T06:21:27;5.35;;;4.72;;
50757;SDS011;36732;47.980;11.652;2023-01-19T06:23:52;7.00;;;5.38;;
50757;SDS011;36732;47.980;11.652;2023-01-19T06:26:18;5.70;;;5.15;;
50757;SDS011;36732;47.980;11.652;2023-01-19T06:28:44;9.75;;;5.50;;
50757;SDS011;36732;47.980;11.652;2023-01-19T06:31:10;8.40;;;5.22;;
50757;SDS011;36732;47.980;11.652;2023-01-19T06:33:36;6.13;;;4.93;;
50757;SDS011;36732;47.980;11.652;2023-01-19T06:36:02;7.43;;;4.60;;
50757;SDS011;36732;47.980;11.652;2023-01-19T06:38:28;6.28;;;5.15;;
50757;SDS011;36732;47.980;11.652;2023-01-19T06:40:54;6.57;;;4.65;;
50757;SDS011;36732;47.980;11.652;2023-01-19T06:43:26;5.03;;;4.38;;
50757;SDS011;36732;47.980;11.652;2023-01-19T06:45:52;10.23;;;6.57;;
50757;SDS011;36732;47.980;11.652;2023-01-19T06:48:20;6.80;;;4.70;;
50757;SDS011;36732;47.980;11.652;2023-01-19T06:50:46;6.70;;;5.10;;
50757;SDS011;36732;47.980;11.652;2023-01-19T06:53:13;6.22;;;4.95;;
50757;SDS011;36732;47.980;11.652;2023-01-19T06:55:40;5.97;;;4.82;;
50757;SDS011;36732;47.980;11.652;2023-01-19T06:58:07;6.30;;;4.72;;
50757;SDS011;36732;47.980;11.652;2023-01-19T07:00:34;7.07;;;5.65;;
50757;SDS011;36732;47.980;11.652;2023-01-19T07:03:00;10.18;;;8.50;;
50757;SDS011;36732;47.980;11.652;2023-01-19T07:05:25;8.00;;;5.75;;
50757;SDS011;36732;47.980;11.652;2023-01-19T07:07:55;7.15;;;5.20;;
50757;SDS011;36732;47.980;11.652;2023-01-19T07:10:22;6.30;;;4.47;;
50757;SDS011;36732;47.980;11.652;2023-01-19T07:12:48;6.20;;;5.30;;
50757;SDS011;36732;47.980;11.652;2023-01-19T07:15:15;7.32;;;5.57;;
50757;SDS011;36732;47.980;11.652;2023-01-19T07:17:43;6.75;;;5.30;;
50757;SDS011;36732;47.980;11.652;2023-01-19T07:20:10;7.57;;;4.80;;
50757;SDS011;36732;47.980;11.652;2023-01-19T07:22:38;7.50;;;4.85;;
50757;SDS011;36732;47.980;11.652;2023-01-19T07:25:05;6.45;;;5.18;;
50757;SDS011;36732;47.980;11.652;2023-01-19T07:27:31;7.18;;;4.80;;
50757;SDS011;36732;47.980;11.652;2023-01-19T07:29:57;7.78;;;4.57;;
50757;SDS011;36732;47.980;11.652;2023-01-19T07:32:25;5.97;;;4.93;;
50757;SDS011;36732;47.980;11.652;2023-01-19T07:34:52;6.53;;;5.60;;
50757;SDS011;36732;47.980;11.652;2023-01-19T07:37:18;8.35;;;5.65;;
50757;SDS011;36732;47.980;11.652;2023-01-19T07:39:43;7.72;;;5.93;;
50757;SDS011;36732;47.980;11.652;2023-01-19T07:42:09;8.68;;;6.28;;
50757;SDS011;36732;47.980;11.652;2023-01-19T07:44:35;6.72;;;5.78;;
50757;SDS011;36732;47.980;11.652;2023-01-19T07:47:01;7.72;;;6.47;;
50757;SDS011;36732;47.980;11.652;2023-01-19T07:49:27;7.10;;;5.88;;
50757;SDS011;36732;47.980;11.652;2023-01-19T07:51:53;7.68;;;5.25;;
50757;SDS011;36732;47.980;11.652;2023-01-19T07:54:20;7.50;;;6.13;;
50757;SDS011;36732;47.980;11.652;2023-01-19T07:56:46;8.68;;;6.13;;
50757;SDS011;36732;47.980;11.652;2023-01-19T07:59:12;6.05;;;5.00;;
50757;SDS011;36732;47.980;11.652;2023-01-19T08:01:38;6.05;;;5.45;;
50757;SDS011;36732;47.980;11.652;2023-01-19T08:04:04;7.00;;;5.60;;
50757;SDS011;36732;47.980;11.652;2023-01-19T08:06:33;5.95;;;5.35;;
50757;SDS011;36732;47.980;11.652;2023-01-19T08:09:01;8.63;;;5.88;;
50757;SDS011;36732;47.980;11.652;2023-01-19T08:11:29;7.13;;;5.60;;
50757;SDS011;36732;47.980;11.652;2023-01-19T08:13:56;10.07;;;6.38;;
50757;SDS011;36732;47.980;11.652;2023-01-19T08:16:22;6.82;;;5.47;;
50757;SDS011;36732;47.980;11.652;2023-01-19T08:18:48;7.50;;;5.70;;
50757;SDS011;36732;47.980;11.652;2023-01-19T08:21:13;9.52;;;5.85;;
50757;SDS011;36732;47.980;11.652;2023-01-19T08:23:39;6.35;;;5.68;;
50757;SDS011;36732;47.980;11.652;2023-01-19T08:26:18;8.27;;;5.28;;
50757;SDS011;36732;47.980;11.652;2023-01-19T08:28:57;8.05;;;6.53;;
50757;SDS011;36732;47.980;11.652;2023-01-19T08:31:26;8.52;;;6.65;;
50757;SDS011;36732;47.980;11.652;2023-01-19T08:33:52;9.25;;;6.70;;
50757;SDS011;36732;47.980;11.652;2023-01-19T08:36:18;7.25;;;6.05;;
50757;SDS011;36732;47.980;11.652;2023-01-19T08:38:45;6.95;;;5.57;;
50757;SDS011;36732;47.980;11.652;2023-01-19T08:41:11;6.97;;;5.90;;
50757;SDS011;36732;47.980;11.652;2023-01-19T08:43:39;8.57;;;5.88;;
50757;SDS011;36732;47.980;11.652;2023-01-19T08:46:04;6.38;;;5.75;;
50757;SDS011;36732;47.980;11.652;2023-01-19T08:48:30;8.93;;;5.47;;
50757;SDS011;36732;47.980;11.652;2023-01-19T08:50:57;5.85;;;5.00;;
50757;SDS011;36732;47.980;11.652;2023-01-19T08:53:24;6.57;;;5.47;;
50757;SDS011;36732;47.980;11.652;2023-01-19T08:55:53;7.70;;;5.35;;
50757;SDS011;36732;47.980;11.652;2023-01-19T08:58:27;6.57;;;5.10;;
50757;SDS011;36732;47.980;11.652;2023-01-19T09:00:53;6.78;;;5.68;;
50757;SDS011;36732;47.980;11.652;2023-01-19T09:03:19;6.05;;;5.22;;
50757;SDS011;36732;47.980;11.652;2023-01-19T09:05:49;7.10;;;5.30;;
50757;SDS011;36732;47.980;11.652;2023-01-19T09:08:14;6.75;;;6.00;;
50757;SDS011;36732;47.980;11.652;2023-01-19T09:10:47;10.30;;;7.13;;
50757;SDS011;36732;47.980;11.652;2023-01-19T09:13:15;7.28;;;6.32;;
50757;SDS011;36732;47.980;11.652;2023-01-19T09:15:42;9.15;;;6.32;;
50757;SDS011;36732;47.980;11.652;2023-01-19T09:18:10;6.28;;;5.25;;
50757;SDS011;36732;47.980;11.652;2023-01-19T09:20:39;8.02;;;5.97;;
50757;SDS011;36732;47.980;11.652;2023-01-19T09:23:09;7.50;;;6.10;;
50757;SDS011;36732;47.980;11.652;2023-01-19T09:25:37;10.13;;;6.70;;
50757;SDS011;36732;47.980;11.652;2023-01-19T09:28:04;7.32;;;6.20;;
50757;SDS011;36732;47.980;11.652;2023-01-19T09:30:33;8.15;;;6.65;;
50757;SDS011;36732;47.980;11.652;2023-01-19T09:33:04;8.77;;;7.05;;
50757;SDS011;36732;47.980;11.652;2023-01-19T09:35:32;8.50;;;6.47;;
50757;SDS011;36732;47.980;11.652;2023-01-19T09:37:58;6.80;;;6.00;;
50757;SDS011;36732;47.980;11.652;2023-01-19T09:40:25;9.25;;;7.30;;
50757;SDS011;36732;47.980;11.652;2023-01-19T09:43:06;10.95;;;8.20;;
50757;SDS011;36732;47.980;11.652;2023-01-19T09:45:57;11.70;;;8.70;;
50757;SDS011;36732;47.980;11.652;2023-01-19T09:51:12;12.43;;;8.55;;
50757;SDS011;36732;47.980;11.652;2023-01-19T09:53:49;7.70;;;6.55;;
50757;SDS011;36732;47.980;11.652;2023-01-19T09:56:33;8.32;;;5.82;;
50757;SDS011;36732;47.980;11.652;2023-01-19T09:58:59;7.13;;;6.13;;
50757;SDS011;36732;47.980;11.652;2023-01-19T10:01:39;8.27;;;6.50;;
50757;SDS011;36732;47.980;11.652;2023-01-19T10:05:21;6.22;;;5.28;;
50757;SDS011;36732;47.980;11.652;2023-01-19T10:07:42;7.65;;;5.75;;
50757;SDS011;36732;47.980;11.652;2023-01-19T10:10:32;6.60;;;5.32;;
50757;SDS011;36732;47.980;11.652;2023-01-19T10:18:56;7.38;;;5.70;;
50757;SDS011;36732;47.980;11.652;2023-01-19T10:21:37;8.00;;;6.35;;
50757;SDS011;36732;47.980;11.652;2023-01-19T10:24:18;17.38;;;11.13;;
50757;SDS011;36732;47.980;11.652;2023-01-19T10:26:50;16.48;;;10.15;;
50757;SDS011;36732;47.980;11.652;2023-01-19T10:29:24;10.25;;;8.40;;
50757;SDS011;36732;47.980;11.652;2023-01-19T10:32:44;8.52;;;6.22;;
50757;SDS011;36732;47.980;11.652;2023-01-19T10:34:51;7.03;;;5.68;;
50757;SDS011;36732;47.980;11.652;2023-01-19T10:37:39;7.05;;;5.93;;
50757;SDS011;36732;47.980;11.652;2023-01-19T10:42:34;6.88;;;5.50;;
50757;SDS011;36732;47.980;11.652;2023-01-19T10:45:03;6.43;;;5.35;;
50757;SDS011;36732;47.980;11.652;2023-01-19T10:47:40;7.35;;;5.30;;
50757;SDS011;36732;47.980;11.652;2023-01-19T10:50:21;7.82;;;5.57;;
50757;SDS011;36732;47.980;11.652;2023-01-19T10:52:57;6.60;;;5.13;;
50757;SDS011;36732;47.980;11.652;2023-01-19T10:55:35;5.95;;;5.35;;
50757;SDS011;36732;47.980;11.652;2023-01-19T10:58:03;7.00;;;5.57;;
50757;SDS011;36732;47.980;11.652;2023-01-19T11:00:38;5.70;;;5.10;;
50757;SDS011;36732;47.980;11.652;2023-01-19T11:03:24;7.55;;;5.47;;
50757;SDS011;36732;47.980;11.652;2023-01-19T11:06:28;6.13;;;5.18;;
50757;SDS011;36732;47.980;11.652;2023-01-19T11:09:08;5.90;;;5.10;;
50757;SDS011;36732;47.980;11.652;2023-01-19T11:11:47;10.45;;;7.03;;
50757;SDS011;36732;47.980;11.652;2023-01-19T11:14:21;8.70;;;6.70;;
50757;SDS011;36732;47.980;11.652;2023-01-19T11:16:53;7.72;;;6.28;;
50757;SDS011;36732;47.980;11.652;2023-01-19T11:19:25;7.18;;;5.72;;
50757;SDS011;36732;47.980;11.652;2023-01-19T11:22:07;6.57;;;5.07;;
50757;SDS011;36732;47.980;11.652;2023-01-19T11:24:48;6.95;;;5.10;;
50757;SDS011;36732;47.980;11.652;2023-01-19T11:27:15;6.72;;;4.93;;
50757;SDS011;36732;47.980;11.652;2023-01-19T11:29:46;7.63;;;5.22;;
50757;SDS011;36732;47.980;11.652;2023-01-19T11:32:20;7.10;;;5.38;;
50757;SDS011;36732;47.980;11.652;2023-01-19T11:34:47;6.53;;;5.50;;
50757;SDS011;36732;47.980;11.652;2023-01-19T11:42:12;7.97;;;4.95;;
50757;SDS011;36732;47.980;11.652;2023-01-19T11:44:45;7.07;;;5.43;;
50757;SDS011;36732;47.980;11.652;2023-01-19T11:47:41;7.85;;;6.00;;
50757;SDS011;36732;47.980;11.652;2023-01-19T11:50:23;8.85;;;5.78;;
50757;SDS011;36732;47.980;11.652;2023-01-19T11:53:17;5.50;;;4.90;;
50757;SDS011;36732;47.980;11.652;2023-01-19T11:58:36;7.97;;;5.53;;
50757;SDS011;36732;47.980;11.652;2023-01-19T12:01:13;7.65;;;5.05;;
50757;SDS011;36732;47.980;11.652;2023-01-19T12:06:40;5.43;;;4.13;;
50757;SDS011;36732;47.980;11.652;2023-01-19T12:09:32;6.03;;;4.65;;
50757;SDS011;36732;47.980;11.652;2023-01-19T12:14:50;5.53;;;4.65;;
50757;SDS011;36732;47.980;11.652;2023-01-19T12:17:26;7.97;;;4.90;;
50757;SDS011;36732;47.980;11.652;2023-01-19T12:20:24;5.32;;;4.50;;
50757;SDS011;36732;47.980;11.652;2023-01-19T12:23:06;7.82;;;6.22;;
50757;SDS011;36732;47.980;11.652;2023-01-19T12:26:17;10.85;;;7.65;;
50757;SDS011;36732;47.980;11.652;2023-01-19T12:28:58;7.35;;;5.38;;
50757;SDS011;36732;47.980;11.652;2023-01-19T12:31:34;6.30;;;5.05;;
50757;SDS011;36732;47.980;11.652;2023-01-19T12:36:50;4.65;;;3.70;;
50757;SDS011;36732;47.980;11.652;2023-01-19T12:39:17;4.70;;;3.40;;
50757;SDS011;36732;47.980;11.652;2023-01-19T12:41:46;4.68;;;3.90;;
50757;SDS011;36732;47.980;11.652;2023-01-19T12:46:44;4.45;;;3.33;;
50757;SDS011;36732;47.980;11.652;2023-01-19T12:52:11;6.20;;;3.47;;
50757;SDS011;36732;47.980;11.652;2023-01-19T12:54:55;4.03;;;3.17;;
50757;SDS011;36732;47.980;11.652;2023-01-19T12:58:24;4.97;;;3.65;;
50757;SDS011;36732;47.980;11.652;2023-01-19T13:00:48;3.47;;;3.13;;
50757;SDS011;36732;47.980;11.652;2023-01-19T13:05:53;3.70;;;2.90;;
50757;SDS011;36732;47.980;11.652;2023-01-19T13:08:27;4.93;;;3.53;;
50757;SDS011;36732;47.980;11.652;2023-01-19T13:11:20;3.42;;;2.90;;
50757;SDS011;36732;47.980;11.652;2023-01-19T13:29:14;3.30;;;2.20;;
50757;SDS011;36732;47.980;11.652;2023-01-19T13:32:14;3.40;;;2.90;;
50757;SDS011;36732;47.980;11.652;2023-01-19T13:34:47;3.30;;;2.55;;
50757;SDS011;36732;47.980;11.652;2023-01-19T13:37:22;3.15;;;2.75;;
50757;SDS011;36732;47.980;11.652;2023-01-19T13:39:54;2.33;;;2.13;;
50757;SDS011;36732;47.980;11.652;2023-01-19T13:44:53;3.67;;;2.90;;
50757;SDS011;36732;47.980;11.652;2023-01-19T13:47:27;4.47;;;3.00;;
50757;SDS011;36732;47.980;11.652;2023-01-19T13:50:06;3.10;;;2.37;;
50757;SDS011;36732;47.980;11.652;2023-01-19T13:52:43;4.78;;;2.33;;
50757;SDS011;36732;47.980;11.652;2023-01-19T13:55:13;2.97;;;2.30;;
50757;SDS011;36732;47.980;11.652;2023-01-19T13:57:43;3.55;;;2.47;;
50757;SDS011;36732;47.980;11.652;2023-01-19T14:08:01;3.80;;;1.83;;
50757;SDS011;36732;47.980;11.652;2023-01-19T14:10:43;2.70;;;2.40;;
50757;SDS011;36732;47.980;11.652;2023-01-19T14:13:32;9.07;;;2.35;;
50757;SDS011;36732;47.980;11.652;2023-01-19T14:16:05;2.63;;;2.42;;
50757;SDS011;36732;47.980;11.652;2023-01-19T14:18:38;4.28;;;2.40;;
50757;SDS011;36732;47.980;11.652;2023-01-19T14:21:08;4.50;;;2.33;;
50757;SDS011;36732;47.980;11.652;2023-01-19T14:31:47;3.67;;;2.47;;
50757;SDS011;36732;47.980;11.652;2023-01-19T14:36:54;3.92;;;2.38;;
50757;SDS011;36732;47.980;11.652;2023-01-19T14:39:20;3.80;;;2.60;;
50757;SDS011;36732;47.980;11.652;2023-01-19T14:41:51;3.05;;;2.28;;
50757;SDS011;36732;47.980;11.652;2023-01-19T14:44:27;4.57;;;2.88;;
50757;SDS011;36732;47.980;11.652;2023-01-19T14:46:58;4.68;;;2.58;;
50757;SDS011;36732;47.980;11.652;2023-01-19T14:49:31;4.40;;;2.90;;
50757;SDS011;36732;47.980;11.652;2023-01-19T14:52:47;3.85;;;2.70;;
50757;SDS011;36732;47.980;11.652;2023-01-19T14:54:52;5.28;;;3.30;;
50757;SDS011;36732;47.980;11.652;2023-01-19T14:57:20;5.15;;;3.40;;
50757;SDS011;36732;47.980;11.652;2023-01-19T14:59:46;5.25;;;4.10;;
50757;SDS011;36732;47.980;11.652;2023-01-19T15:02:13;6.38;;;4.07;;
50757;SDS011;36732;47.980;11.652;2023-01-19T15:04:42;6.15;;;3.67;;
50757;SDS011;36732;47.980;11.652;2023-01-19T15:07:11;4.43;;;2.97;;
50757;SDS011;36732;47.980;11.652;2023-01-19T15:09:43;4.50;;;3.47;;
50757;SDS011;36732;47.980;11.652;2023-01-19T15:12:10;4.90;;;3.53;;
50757;SDS011;36732;47.980;11.652;2023-01-19T15:14:39;4.05;;;3.10;;
50757;SDS011;36732;47.980;11.652;2023-01-19T15:17:05;5.60;;;3.70;;
50757;SDS011;36732;47.980;11.652;2023-01-19T15:19:32;7.30;;;4.20;;
50757;SDS011;36732;47.980;11.652;2023-01-19T15:21:58;8.52;;;4.40;;
50757;SDS011;36732;47.980;11.652;2023-01-19T15:24:23;4.70;;;3.83;;
50757;SDS011;36732;47.980;11.652;2023-01-19T15:26:49;5.13;;;3.80;;
50757;SDS011;36732;47.980;11.652;2023-01-19T15:29:17;6.80;;;4.20;;
50757;SDS011;36732;47.980;11.652;2023-01-19T15:31:49;5.95;;;3.63;;
50757;SDS011;36732;47.980;11.652;2023-01-19T15:34:15;5.03;;;3.08;;
50757;SDS011;36732;47.980;11.652;2023-01-19T15:36:41;4.40;;;3.33;;
50757;SDS011;36732;47.980;11.652;2023-01-19T15:39:07;6.80;;;3.60;;
50757;SDS011;36732;47.980;11.652;2023-01-19T15:41:34;5.32;;;3.30;;
50757;SDS011;36732;47.980;11.652;2023-01-19T15:44:02;4.93;;;3.55;;
50757;SDS011;36732;47.980;11.652;2023-01-19T15:46:29;6.40;;;4.00;;
50757;SDS011;36732;47.980;11.652;2023-01-19T15:48:55;4.80;;;3.38;;
50757;SDS011;36732;47.980;11.652;2023-01-19T15:51:21;4.40;;;3.13;;
50757;SDS011;36732;47.980;11.652;2023-01-19T15:53:52;4.97;;;3.00;;
50757;SDS011;36732;47.980;11.652;2023-01-19T15:56:23;5.05;;;3.05;;
50757;SDS011;36732;47.980;11.652;2023-01-19T15:58:54;9.73;;;3.90;;
50757;SDS011;36732;47.980;11.652;2023-01-19T16:01:22;4.50;;;3.38;;
50757;SDS011;36732;47.980;11.652;2023-01-19T16:03:56;4.90;;;3.83;;
50757;SDS011;36732;47.980;11.652;2023-01-19T16:06:28;5.22;;;3.10;;
50757;SDS011;36732;47.980;11.652;2023-01-19T16:08:55;4.70;;;2.90;;
50757;SDS011;36732;47.980;11.652;2023-01-19T16:11:25;5.82;;;2.90;;
50757;SDS011;36732;47.980;11.652;2023-01-19T16:13:53;4.20;;;2.92;;
50757;SDS011;36732;47.980;11.652;2023-01-19T16:16:20;4.40;;;2.58;;
50757;SDS011;36732;47.980;11.652;2023-01-19T16:18:47;3.20;;;2.60;;
50757;SDS011;36732;47.980;11.652;2023-01-19T16:21:13;5.45;;;2.90;;
50757;SDS011;36732;47.980;11.652;2023-01-19T16:23:39;5.38;;;2.80;;